Terminal Aerodrome Forecast
Issued by NWS Cleveland, OH

Home | Current Version | Previous Version | Text Only | Print | Product List | Glossary Off
Versions: 1 2 3 4 5 6 7 8 9 10 11 12 13

000
FTUS41 KCLE 251724
TAFERI
TAF
KERI 251724Z 2518/2618 26012G18KT P6SM SCT030 BKN060
     FM260000 25007KT P6SM FEW040
     FM260800 33004KT P6SM FEW040=

USA.gov is the U.S. government's official web portal to all federal, state and local government web resources and services.